sensor_id;sensor_type;location;lat;lon;timestamp;temperature;humidity
8914;DHT22;4492;48.736;9.092;2022-10-30T00:00:33;16.30;98.60
8914;DHT22;4492;48.736;9.092;2022-10-30T00:02:59;16.30;98.00
8914;DHT22;4492;48.736;9.092;2022-10-30T00:05:24;16.40;97.90
8914;DHT22;4492;48.736;9.092;2022-10-30T00:07:50;16.50;97.80
8914;DHT22;4492;48.736;9.092;2022-10-30T00:10:17;16.60;97.50
8914;DHT22;4492;48.736;9.092;2022-10-30T00:12:43;16.60;97.40
8914;DHT22;4492;48.736;9.092;2022-10-30T00:15:09;16.70;97.20
8914;DHT22;4492;48.736;9.092;2022-10-30T00:17:35;16.80;97.10
8914;DHT22;4492;48.736;9.092;2022-10-30T00:20:00;16.80;96.90
8914;DHT22;4492;48.736;9.092;2022-10-30T00:22:26;16.90;96.90
8914;DHT22;4492;48.736;9.092;2022-10-30T00:24:51;16.90;96.70
8914;DHT22;4492;48.736;9.092;2022-10-30T00:27:17;17.00;96.50
8914;DHT22;4492;48.736;9.092;2022-10-30T00:29:43;17.00;96.50
8914;DHT22;4492;48.736;9.092;2022-10-30T00:32:08;17.00;96.40
8914;DHT22;4492;48.736;9.092;2022-10-30T00:34:34;17.00;96.30
8914;DHT22;4492;48.736;9.092;2022-10-30T00:37:00;17.00;96.60
8914;DHT22;4492;48.736;9.092;2022-10-30T00:39:25;17.00;96.90
8914;DHT22;4492;48.736;9.092;2022-10-30T00:41:51;16.90;97.30
8914;DHT22;4492;48.736;9.092;2022-10-30T00:47:17;16.70;97.50
8914;DHT22;4492;48.736;9.092;2022-10-30T00:52:23;16.40;97.80
8914;DHT22;4492;48.736;9.092;2022-10-30T00:54:51;16.30;98.30
8914;DHT22;4492;48.736;9.092;2022-10-30T00:57:18;16.10;98.50
8914;DHT22;4492;48.736;9.092;2022-10-30T00:59:45;16.00;98.70
8914;DHT22;4492;48.736;9.092;2022-10-30T01:02:11;15.80;99.00
8914;DHT22;4492;48.736;9.092;2022-10-30T01:04:37;15.70;99.60
8914;DHT22;4492;48.736;9.092;2022-10-30T01:07:09;15.60;99.90
8914;DHT22;4492;48.736;9.092;2022-10-30T01:09:36;15.60;99.90
8914;DHT22;4492;48.736;9.092;2022-10-30T01:12:02;15.50;99.90
8914;DHT22;4492;48.736;9.092;2022-10-30T01:14:27;15.40;99.90
8914;DHT22;4492;48.736;9.092;2022-10-30T01:17:10;15.30;99.90
8914;DHT22;4492;48.736;9.092;2022-10-30T01:20:13;15.20;99.90
8914;DHT22;4492;48.736;9.092;2022-10-30T01:23:10;15.10;99.90
8914;DHT22;4492;48.736;9.092;2022-10-30T01:26:18;15.00;99.90
8914;DHT22;4492;48.736;9.092;2022-10-30T01:29:06;15.00;99.90
8914;DHT22;4492;48.736;9.092;2022-10-30T01:31:40;14.90;99.90
8914;DHT22;4492;48.736;9.092;2022-10-30T01:34:18;14.90;99.90
8914;DHT22;4492;48.736;9.092;2022-10-30T01:39:25;15.10;99.90
8914;DHT22;4492;48.736;9.092;2022-10-30T01:41:51;15.10;99.90
8914;DHT22;4492;48.736;9.092;2022-10-30T01:44:27;15.10;99.90
8914;DHT22;4492;48.736;9.092;2022-10-30T01:52:17;14.90;99.90
8914;DHT22;4492;48.736;9.092;2022-10-30T01:55:03;14.90;99.90
8914;DHT22;4492;48.736;9.092;2022-10-30T01:57:37;14.80;99.90
8914;DHT22;4492;48.736;9.092;2022-10-30T02:02:31;14.70;99.90
8914;DHT22;4492;48.736;9.092;2022-10-30T02:04:58;14.80;99.90
8914;DHT22;4492;48.736;9.092;2022-10-30T02:07:24;14.80;99.90
8914;DHT22;4492;48.736;9.092;2022-10-30T02:09:53;14.80;99.90
8914;DHT22;4492;48.736;9.092;2022-10-30T02:12:20;14.80;99.90
8914;DHT22;4492;48.736;9.092;2022-10-30T02:14:49;14.80;99.90
8914;DHT22;4492;48.736;9.092;2022-10-30T02:17:17;14.70;99.90
8914;DHT22;4492;48.736;9.092;2022-10-30T02:19:43;14.70;99.90
8914;DHT22;4492;48.736;9.092;2022-10-30T02:22:09;14.70;99.90
8914;DHT22;4492;48.736;9.092;2022-10-30T02:24:35;14.70;99.90
8914;DHT22;4492;48.736;9.092;2022-10-30T02:27:00;14.60;99.90
8914;DHT22;4492;48.736;9.092;2022-10-30T02:29:26;14.60;99.90
8914;DHT22;4492;48.736;9.092;2022-10-30T02:31:52;14.50;99.90
8914;DHT22;4492;48.736;9.092;2022-10-30T02:34:18;14.40;99.90
8914;DHT22;4492;48.736;9.092;2022-10-30T02:36:43;14.40;99.90
8914;DHT22;4492;48.736;9.092;2022-10-30T02:39:09;14.30;99.90
8914;DHT22;4492;48.736;9.092;2022-10-30T02:41:34;14.30;99.90
8914;DHT22;4492;48.736;9.092;2022-10-30T02:44:00;14.20;99.90
8914;DHT22;4492;48.736;9.092;2022-10-30T02:46:26;14.20;99.90
8914;DHT22;4492;48.736;9.092;2022-10-30T02:48:52;14.10;99.90
8914;DHT22;4492;48.736;9.092;2022-10-30T02:51:17;14.00;99.90
8914;DHT22;4492;48.736;9.092;2022-10-30T02:53:44;14.00;99.90
8914;DHT22;4492;48.736;9.092;2022-10-30T02:56:12;13.90;99.90
8914;DHT22;4492;48.736;9.092;2022-10-30T02:58:39;13.80;99.90
8914;DHT22;4492;48.736;9.092;2022-10-30T03:01:10;13.80;99.90
8914;DHT22;4492;48.736;9.092;2022-10-30T03:03:37;13.70;99.90
8914;DHT22;4492;48.736;9.092;2022-10-30T03:06:04;13.60;99.90
8914;DHT22;4492;48.736;9.092;2022-10-30T03:08:30;13.60;99.90
8914;DHT22;4492;48.736;9.092;2022-10-30T03:11:06;13.50;99.90
8914;DHT22;4492;48.736;9.092;2022-10-30T03:13:33;13.40;99.90
8914;DHT22;4492;48.736;9.092;2022-10-30T03:16:14;13.30;99.90
8914;DHT22;4492;48.736;9.092;2022-10-30T03:18:39;13.20;99.90
8914;DHT22;4492;48.736;9.092;2022-10-30T03:21:08;13.20;99.90
8914;DHT22;4492;48.736;9.092;2022-10-30T03:23:34;13.10;99.90
8914;DHT22;4492;48.736;9.092;2022-10-30T03:25:59;13.00;99.90
8914;DHT22;4492;48.736;9.092;2022-10-30T03:28:27;13.00;99.90
8914;DHT22;4492;48.736;9.092;2022-10-30T03:31:06;12.90;99.90
8914;DHT22;4492;48.736;9.092;2022-10-30T03:33:33;12.80;99.90
8914;DHT22;4492;48.736;9.092;2022-10-30T03:35:59;12.80;99.90
8914;DHT22;4492;48.736;9.092;2022-10-30T03:38:25;12.70;99.90
8914;DHT22;4492;48.736;9.092;2022-10-30T03:40:51;12.60;99.90
8914;DHT22;4492;48.736;9.092;2022-10-30T03:43:17;12.50;99.90
8914;DHT22;4492;48.736;9.092;2022-10-30T03:45:47;12.50;99.90
8914;DHT22;4492;48.736;9.092;2022-10-30T03:48:13;12.40;99.90
8914;DHT22;4492;48.736;9.092;2022-10-30T03:50:38;12.40;99.90
8914;DHT22;4492;48.736;9.092;2022-10-30T03:53:04;12.40;99.90
8914;DHT22;4492;48.736;9.092;2022-10-30T03:55:29;12.30;99.90
8914;DHT22;4492;48.736;9.092;2022-10-30T03:57:55;12.30;99.90
8914;DHT22;4492;48.736;9.092;2022-10-30T04:00:20;12.30;99.90
8914;DHT22;4492;48.736;9.092;2022-10-30T04:02:50;12.30;99.90
8914;DHT22;4492;48.736;9.092;2022-10-30T04:05:18;12.30;99.90
8914;DHT22;4492;48.736;9.092;2022-10-30T04:07:44;12.20;99.90
8914;DHT22;4492;48.736;9.092;2022-10-30T04:10:11;12.30;99.90
8914;DHT22;4492;48.736;9.092;2022-10-30T04:12:37;12.30;99.90
8914;DHT22;4492;48.736;9.092;2022-10-30T04:15:04;12.20;99.90
8914;DHT22;4492;48.736;9.092;2022-10-30T04:17:30;12.20;99.90
8914;DHT22;4492;48.736;9.092;2022-10-30T04:19:55;12.20;99.90
8914;DHT22;4492;48.736;9.092;2022-10-30T04:22:21;12.20;99.90
8914;DHT22;4492;48.736;9.092;2022-10-30T04:24:46;12.20;99.90
8914;DHT22;4492;48.736;9.092;2022-10-30T04:27:13;12.10;99.90
8914;DHT22;4492;48.736;9.092;2022-10-30T04:29:39;12.00;99.90
8914;DHT22;4492;48.736;9.092;2022-10-30T04:32:06;12.00;99.90
8914;DHT22;4492;48.736;9.092;2022-10-30T04:34:32;12.00;99.90
8914;DHT22;4492;48.736;9.092;2022-10-30T04:36:57;11.90;99.90
8914;DHT22;4492;48.736;9.092;2022-10-30T04:39:23;11.90;99.90
8914;DHT22;4492;48.736;9.092;2022-10-30T04:41:48;11.80;99.90
8914;DHT22;4492;48.736;9.092;2022-10-30T04:44:14;11.70;99.90
8914;DHT22;4492;48.736;9.092;2022-10-30T04:46:39;11.70;99.90
8914;DHT22;4492;48.736;9.092;2022-10-30T04:49:05;11.60;99.90
8914;DHT22;4492;48.736;9.092;2022-10-30T04:51:30;11.50;99.90
8914;DHT22;4492;48.736;9.092;2022-10-30T04:53:56;11.40;99.90
8914;DHT22;4492;48.736;9.092;2022-10-30T04:56:23;11.40;99.90
8914;DHT22;4492;48.736;9.092;2022-10-30T04:58:49;11.30;99.90
8914;DHT22;4492;48.736;9.092;2022-10-30T05:01:14;11.20;99.90
8914;DHT22;4492;48.736;9.092;2022-10-30T05:03:40;11.20;99.90
8914;DHT22;4492;48.736;9.092;2022-10-30T05:06:12;11.10;99.90
8914;DHT22;4492;48.736;9.092;2022-10-30T05:08:38;11.10;99.90
8914;DHT22;4492;48.736;9.092;2022-10-30T05:11:04;11.10;99.90
8914;DHT22;4492;48.736;9.092;2022-10-30T05:13:30;11.00;99.90
8914;DHT22;4492;48.736;9.092;2022-10-30T05:15:55;11.00;99.90
8914;DHT22;4492;48.736;9.092;2022-10-30T05:18:21;10.90;99.90
8914;DHT22;4492;48.736;9.092;2022-10-30T05:20:46;10.80;99.90
8914;DHT22;4492;48.736;9.092;2022-10-30T05:23:12;10.80;99.90
8914;DHT22;4492;48.736;9.092;2022-10-30T05:25:38;10.70;99.90
8914;DHT22;4492;48.736;9.092;2022-10-30T05:28:05;10.70;99.90
8914;DHT22;4492;48.736;9.092;2022-10-30T05:30:32;10.70;99.90
8914;DHT22;4492;48.736;9.092;2022-10-30T05:33:05;10.70;99.90
8914;DHT22;4492;48.736;9.092;2022-10-30T05:35:32;10.70;99.90
8914;DHT22;4492;48.736;9.092;2022-10-30T05:37:59;10.70;99.90
8914;DHT22;4492;48.736;9.092;2022-10-30T05:40:25;10.70;99.90
8914;DHT22;4492;48.736;9.092;2022-10-30T05:42:50;10.60;99.90
8914;DHT22;4492;48.736;9.092;2022-10-30T05:45:16;10.60;99.90
8914;DHT22;4492;48.736;9.092;2022-10-30T05:47:43;10.50;99.90
8914;DHT22;4492;48.736;9.092;2022-10-30T05:50:09;10.50;99.90
8914;DHT22;4492;48.736;9.092;2022-10-30T05:52:36;10.40;99.90
8914;DHT22;4492;48.736;9.092;2022-10-30T05:55:01;10.40;99.90
8914;DHT22;4492;48.736;9.092;2022-10-30T05:57:27;10.30;99.90
8914;DHT22;4492;48.736;9.092;2022-10-30T05:59:53;10.30;99.90
8914;DHT22;4492;48.736;9.092;2022-10-30T06:02:19;10.20;99.90
8914;DHT22;4492;48.736;9.092;2022-10-30T06:04:45;10.20;99.90
8914;DHT22;4492;48.736;9.092;2022-10-30T06:07:10;10.20;99.90
8914;DHT22;4492;48.736;9.092;2022-10-30T06:09:36;10.20;99.90
8914;DHT22;4492;48.736;9.092;2022-10-30T06:12:02;10.20;99.90
8914;DHT22;4492;48.736;9.092;2022-10-30T06:14:28;10.30;99.90
8914;DHT22;4492;48.736;9.092;2022-10-30T06:16:53;10.20;99.90
8914;DHT22;4492;48.736;9.092;2022-10-30T06:19:19;10.20;99.90
8914;DHT22;4492;48.736;9.092;2022-10-30T06:21:45;10.20;99.90
8914;DHT22;4492;48.736;9.092;2022-10-30T06:24:11;10.20;99.90
8914;DHT22;4492;48.736;9.092;2022-10-30T06:26:36;10.30;99.90
8914;DHT22;4492;48.736;9.092;2022-10-30T06:29:02;10.30;99.90
8914;DHT22;4492;48.736;9.092;2022-10-30T06:31:27;10.40;99.90
8914;DHT22;4492;48.736;9.092;2022-10-30T06:33:53;10.40;99.90
8914;DHT22;4492;48.736;9.092;2022-10-30T06:36:18;10.50;99.90
8914;DHT22;4492;48.736;9.092;2022-10-30T06:38:44;10.50;99.90
8914;DHT22;4492;48.736;9.092;2022-10-30T06:41:09;10.50;99.90
8914;DHT22;4492;48.736;9.092;2022-10-30T06:43:35;10.60;99.90
8914;DHT22;4492;48.736;9.092;2022-10-30T06:46:01;10.70;99.90
8914;DHT22;4492;48.736;9.092;2022-10-30T06:48:26;10.70;99.90
8914;DHT22;4492;48.736;9.092;2022-10-30T06:50:56;10.80;99.90
8914;DHT22;4492;48.736;9.092;2022-10-30T06:53:22;10.90;99.90
8914;DHT22;4492;48.736;9.092;2022-10-30T06:55:55;10.90;99.90
8914;DHT22;4492;48.736;9.092;2022-10-30T06:58:22;11.10;99.90
8914;DHT22;4492;48.736;9.092;2022-10-30T07:00:47;11.20;99.90
8914;DHT22;4492;48.736;9.092;2022-10-30T07:03:13;11.30;99.90
8914;DHT22;4492;48.736;9.092;2022-10-30T07:05:38;11.50;99.90
8914;DHT22;4492;48.736;9.092;2022-10-30T07:08:04;11.60;99.90
8914;DHT22;4492;48.736;9.092;2022-10-30T07:10:29;11.70;99.90
8914;DHT22;4492;48.736;9.092;2022-10-30T07:12:55;11.80;99.90
8914;DHT22;4492;48.736;9.092;2022-10-30T07:15:21;11.90;99.90
8914;DHT22;4492;48.736;9.092;2022-10-30T07:18:00;12.00;99.90
8914;DHT22;4492;48.736;9.092;2022-10-30T07:20:32;12.10;99.90
8914;DHT22;4492;48.736;9.092;2022-10-30T07:22:58;12.20;99.90
8914;DHT22;4492;48.736;9.092;2022-10-30T07:25:24;12.40;99.90
8914;DHT22;4492;48.736;9.092;2022-10-30T07:27:51;12.50;99.90
8914;DHT22;4492;48.736;9.092;2022-10-30T07:30:20;12.60;99.90
8914;DHT22;4492;48.736;9.092;2022-10-30T07:32:55;12.60;99.90
8914;DHT22;4492;48.736;9.092;2022-10-30T07:35:21;12.70;99.90
8914;DHT22;4492;48.736;9.092;2022-10-30T07:37:47;12.80;99.90
8914;DHT22;4492;48.736;9.092;2022-10-30T07:40:12;12.90;99.90
8914;DHT22;4492;48.736;9.092;2022-10-30T07:42:38;13.10;99.90
8914;DHT22;4492;48.736;9.092;2022-10-30T07:45:04;13.30;99.90
8914;DHT22;4492;48.736;9.092;2022-10-30T07:47:30;13.60;99.90
8914;DHT22;4492;48.736;9.092;2022-10-30T07:49:55;13.90;99.90
8914;DHT22;4492;48.736;9.092;2022-10-30T07:52:21;14.20;99.90
8914;DHT22;4492;48.736;9.092;2022-10-30T07:54:46;14.40;99.90
8914;DHT22;4492;48.736;9.092;2022-10-30T07:57:12;14.70;99.90
8914;DHT22;4492;48.736;9.092;2022-10-30T07:59:38;14.90;99.90
8914;DHT22;4492;48.736;9.092;2022-10-30T08:02:03;15.00;99.90
8914;DHT22;4492;48.736;9.092;2022-10-30T08:04:29;15.10;99.90
8914;DHT22;4492;48.736;9.092;2022-10-30T08:06:54;15.20;99.90
8914;DHT22;4492;48.736;9.092;2022-10-30T08:09:20;15.30;99.90
8914;DHT22;4492;48.736;9.092;2022-10-30T08:11:45;15.40;99.90
8914;DHT22;4492;48.736;9.092;2022-10-30T08:14:11;15.60;99.90
8914;DHT22;4492;48.736;9.092;2022-10-30T08:16:36;15.80;99.90
8914;DHT22;4492;48.736;9.092;2022-10-30T08:19:02;16.00;99.90
8914;DHT22;4492;48.736;9.092;2022-10-30T08:21:28;16.20;99.90
8914;DHT22;4492;48.736;9.092;2022-10-30T08:23:53;16.40;99.90
8914;DHT22;4492;48.736;9.092;2022-10-30T08:26:19;16.60;99.90
8914;DHT22;4492;48.736;9.092;2022-10-30T08:28:44;16.80;99.90
8914;DHT22;4492;48.736;9.092;2022-10-30T08:31:10;16.90;99.60
8914;DHT22;4492;48.736;9.092;2022-10-30T08:33:35;17.10;99.40
8914;DHT22;4492;48.736;9.092;2022-10-30T08:36:01;17.20;99.50
8914;DHT22;4492;48.736;9.092;2022-10-30T08:38:27;17.30;98.90
8914;DHT22;4492;48.736;9.092;2022-10-30T08:40:53;17.30;97.50
8914;DHT22;4492;48.736;9.092;2022-10-30T08:43:19;17.50;97.20
8914;DHT22;4492;48.736;9.092;2022-10-30T08:45:45;17.70;96.90
8914;DHT22;4492;48.736;9.092;2022-10-30T08:48:12;17.80;96.80
8914;DHT22;4492;48.736;9.092;2022-10-30T08:50:38;17.90;96.50
8914;DHT22;4492;48.736;9.092;2022-10-30T08:53:12;18.00;95.90
8914;DHT22;4492;48.736;9.092;2022-10-30T08:55:37;18.20;95.30
8914;DHT22;4492;48.736;9.092;2022-10-30T08:58:03;18.30;95.10
8914;DHT22;4492;48.736;9.092;2022-10-30T09:00:29;18.40;94.80
8914;DHT22;4492;48.736;9.092;2022-10-30T09:02:55;18.40;94.50
8914;DHT22;4492;48.736;9.092;2022-10-30T09:05:20;18.60;94.60
8914;DHT22;4492;48.736;9.092;2022-10-30T09:07:46;18.60;94.00
8914;DHT22;4492;48.736;9.092;2022-10-30T09:10:12;18.80;93.40
8914;DHT22;4492;48.736;9.092;2022-10-30T09:12:38;19.00;93.20
8914;DHT22;4492;48.736;9.092;2022-10-30T09:15:04;19.00;92.40
8914;DHT22;4492;48.736;9.092;2022-10-30T09:17:30;19.20;92.10
8914;DHT22;4492;48.736;9.092;2022-10-30T09:19:55;19.20;91.90
8914;DHT22;4492;48.736;9.092;2022-10-30T09:22:21;19.30;91.40
8914;DHT22;4492;48.736;9.092;2022-10-30T09:24:46;19.40;90.90
8914;DHT22;4492;48.736;9.092;2022-10-30T09:27:12;19.50;91.10
8914;DHT22;4492;48.736;9.092;2022-10-30T09:29:37;19.60;91.50
8914;DHT22;4492;48.736;9.092;2022-10-30T09:32:04;19.60;91.30
8914;DHT22;4492;48.736;9.092;2022-10-30T09:34:33;19.70;89.90
8914;DHT22;4492;48.736;9.092;2022-10-30T09:36:58;19.80;89.60
8914;DHT22;4492;48.736;9.092;2022-10-30T09:39:24;19.90;90.20
8914;DHT22;4492;48.736;9.092;2022-10-30T09:44:38;20.00;89.00
8914;DHT22;4492;48.736;9.092;2022-10-30T09:47:08;20.10;89.10
8914;DHT22;4492;48.736;9.092;2022-10-30T09:50:03;20.10;89.90
8914;DHT22;4492;48.736;9.092;2022-10-30T09:53:11;20.20;88.50
8914;DHT22;4492;48.736;9.092;2022-10-30T09:55:50;20.30;89.70
8914;DHT22;4492;48.736;9.092;2022-10-30T10:03:47;20.60;83.10
8914;DHT22;4492;48.736;9.092;2022-10-30T10:06:18;20.70;83.00
8914;DHT22;4492;48.736;9.092;2022-10-30T10:08:51;20.80;83.50
8914;DHT22;4492;48.736;9.092;2022-10-30T10:11:35;20.90;80.10
8914;DHT22;4492;48.736;9.092;2022-10-30T10:14:17;21.00;80.70
8914;DHT22;4492;48.736;9.092;2022-10-30T10:16:49;21.00;79.70
8914;DHT22;4492;48.736;9.092;2022-10-30T10:21:59;21.20;81.10
8914;DHT22;4492;48.736;9.092;2022-10-30T10:24:37;21.30;81.10
8914;DHT22;4492;48.736;9.092;2022-10-30T10:35:58;21.60;79.50
8914;DHT22;4492;48.736;9.092;2022-10-30T10:43:59;21.90;80.60
8914;DHT22;4492;48.736;9.092;2022-10-30T10:46:46;22.00;80.50
8914;DHT22;4492;48.736;9.092;2022-10-30T10:51:55;22.30;77.50
8914;DHT22;4492;48.736;9.092;2022-10-30T10:54:32;22.40;77.10
8914;DHT22;4492;48.736;9.092;2022-10-30T10:57:03;22.50;75.20
8914;DHT22;4492;48.736;9.092;2022-10-30T10:59:36;22.60;74.70
8914;DHT22;4492;48.736;9.092;2022-10-30T11:02:36;22.70;72.80
8914;DHT22;4492;48.736;9.092;2022-10-30T11:05:29;22.80;72.20
8914;DHT22;4492;48.736;9.092;2022-10-30T11:08:00;22.90;71.90
8914;DHT22;4492;48.736;9.092;2022-10-30T11:10:29;23.00;71.60
8914;DHT22;4492;48.736;9.092;2022-10-30T11:12:54;23.00;71.70
8914;DHT22;4492;48.736;9.092;2022-10-30T11:18:05;23.10;69.80
8914;DHT22;4492;48.736;9.092;2022-10-30T11:20:48;23.10;70.00
8914;DHT22;4492;48.736;9.092;2022-10-30T11:23:39;23.10;68.40
8914;DHT22;4492;48.736;9.092;2022-10-30T11:26:29;23.10;66.90
8914;DHT22;4492;48.736;9.092;2022-10-30T11:29:11;23.20;68.70
8914;DHT22;4492;48.736;9.092;2022-10-30T11:31:39;23.20;70.20
8914;DHT22;4492;48.736;9.092;2022-10-30T11:36:51;23.30;76.60
8914;DHT22;4492;48.736;9.092;2022-10-30T11:44:42;23.30;79.30
8914;DHT22;4492;48.736;9.092;2022-10-30T11:47:10;23.30;85.00
8914;DHT22;4492;48.736;9.092;2022-10-30T11:52:05;23.20;86.60
8914;DHT22;4492;48.736;9.092;2022-10-30T11:54:36;23.10;87.10
8914;DHT22;4492;48.736;9.092;2022-10-30T11:57:04;23.10;87.70
8914;DHT22;4492;48.736;9.092;2022-10-30T11:59:36;23.00;90.00
8914;DHT22;4492;48.736;9.092;2022-10-30T12:02:23;22.90;90.40
8914;DHT22;4492;48.736;9.092;2022-10-30T12:04:51;22.80;91.00
8914;DHT22;4492;48.736;9.092;2022-10-30T12:07:24;22.80;91.70
8914;DHT22;4492;48.736;9.092;2022-10-30T12:09:54;22.70;92.20
8914;DHT22;4492;48.736;9.092;2022-10-30T12:12:27;22.70;92.80
8914;DHT22;4492;48.736;9.092;2022-10-30T12:14:53;22.70;93.50
8914;DHT22;4492;48.736;9.092;2022-10-30T12:17:20;22.70;93.90
8914;DHT22;4492;48.736;9.092;2022-10-30T12:19:52;22.70;94.20
8914;DHT22;4492;48.736;9.092;2022-10-30T12:22:30;22.80;94.30
8914;DHT22;4492;48.736;9.092;2022-10-30T12:25:14;22.80;94.60
8914;DHT22;4492;48.736;9.092;2022-10-30T12:27:39;22.80;94.70
8914;DHT22;4492;48.736;9.092;2022-10-30T12:30:17;22.80;95.10
8914;DHT22;4492;48.736;9.092;2022-10-30T12:32:50;22.90;95.20
8914;DHT22;4492;48.736;9.092;2022-10-30T12:35:43;22.90;95.40
8914;DHT22;4492;48.736;9.092;2022-10-30T12:41:05;22.90;95.80
8914;DHT22;4492;48.736;9.092;2022-10-30T12:43:34;22.90;95.90
8914;DHT22;4492;48.736;9.092;2022-10-30T12:46:28;23.00;96.10
8914;DHT22;4492;48.736;9.092;2022-10-30T12:49:28;23.00;96.10
8914;DHT22;4492;48.736;9.092;2022-10-30T12:52:06;23.00;96.10
8914;DHT22;4492;48.736;9.092;2022-10-30T12:54:56;23.10;96.00
8914;DHT22;4492;48.736;9.092;2022-10-30T12:57:35;23.10;95.90
8914;DHT22;4492;48.736;9.092;2022-10-30T13:00:13;23.20;95.90
8914;DHT22;4492;48.736;9.092;2022-10-30T13:03:04;23.10;94.70
8914;DHT22;4492;48.736;9.092;2022-10-30T13:05:47;23.10;94.70
8914;DHT22;4492;48.736;9.092;2022-10-30T13:08:31;23.00;94.80
8914;DHT22;4492;48.736;9.092;2022-10-30T13:13:43;23.00;95.00
8914;DHT22;4492;48.736;9.092;2022-10-30T13:16:22;23.10;94.20
8914;DHT22;4492;48.736;9.092;2022-10-30T13:18:54;23.10;94.00
8914;DHT22;4492;48.736;9.092;2022-10-30T13:21:30;23.10;93.80
8914;DHT22;4492;48.736;9.092;2022-10-30T13:24:11;23.10;92.00
8914;DHT22;4492;48.736;9.092;2022-10-30T13:27:01;23.10;91.10
8914;DHT22;4492;48.736;9.092;2022-10-30T13:29:36;23.10;90.40
8914;DHT22;4492;48.736;9.092;2022-10-30T13:38:21;23.30;92.50
8914;DHT22;4492;48.736;9.092;2022-10-30T13:41:12;23.30;92.40
8914;DHT22;4492;48.736;9.092;2022-10-30T13:52:13;23.30;91.30
8914;DHT22;4492;48.736;9.092;2022-10-30T13:54:58;23.30;90.30
8914;DHT22;4492;48.736;9.092;2022-10-30T13:57:33;23.30;86.80
8914;DHT22;4492;48.736;9.092;2022-10-30T14:00:19;23.30;86.90
8914;DHT22;4492;48.736;9.092;2022-10-30T14:03:15;23.20;86.10
8914;DHT22;4492;48.736;9.092;2022-10-30T14:11:21;23.00;84.90
8914;DHT22;4492;48.736;9.092;2022-10-30T14:13:54;22.90;84.40
8914;DHT22;4492;48.736;9.092;2022-10-30T14:16:42;22.80;84.60
8914;DHT22;4492;48.736;9.092;2022-10-30T14:19:10;22.70;86.10
8914;DHT22;4492;48.736;9.092;2022-10-30T14:24:22;22.50;90.70
8914;DHT22;4492;48.736;9.092;2022-10-30T14:39:48;21.80;95.70
8914;DHT22;4492;48.736;9.092;2022-10-30T14:53:36;21.40;97.50
8914;DHT22;4492;48.736;9.092;2022-10-30T14:58:39;21.20;98.10
8914;DHT22;4492;48.736;9.092;2022-10-30T15:03:39;21.00;98.50
8914;DHT22;4492;48.736;9.092;2022-10-30T15:06:49;20.90;98.50
8914;DHT22;4492;48.736;9.092;2022-10-30T15:09:27;20.80;98.50
8914;DHT22;4492;48.736;9.092;2022-10-30T15:12:01;20.60;98.70
8914;DHT22;4492;48.736;9.092;2022-10-30T15:14:34;20.50;99.00
8914;DHT22;4492;48.736;9.092;2022-10-30T15:17:00;20.40;99.30
8914;DHT22;4492;48.736;9.092;2022-10-30T15:19:27;20.30;99.60
8914;DHT22;4492;48.736;9.092;2022-10-30T15:21:54;20.20;99.90
8914;DHT22;4492;48.736;9.092;2022-10-30T15:24:23;20.20;99.90
8914;DHT22;4492;48.736;9.092;2022-10-30T15:26:51;20.00;99.90
8914;DHT22;4492;48.736;9.092;2022-10-30T15:29:19;19.90;99.90
8914;DHT22;4492;48.736;9.092;2022-10-30T15:31:59;19.80;99.90
8914;DHT22;4492;48.736;9.092;2022-10-30T15:34:27;19.70;99.90
8914;DHT22;4492;48.736;9.092;2022-10-30T15:36:53;19.60;99.90
8914;DHT22;4492;48.736;9.092;2022-10-30T15:39:18;19.50;99.90
8914;DHT22;4492;48.736;9.092;2022-10-30T15:41:51;19.40;99.90
8914;DHT22;4492;48.736;9.092;2022-10-30T15:44:25;19.30;99.90
8914;DHT22;4492;48.736;9.092;2022-10-30T15:46:53;19.10;99.90
8914;DHT22;4492;48.736;9.092;2022-10-30T15:49:34;18.90;99.90
8914;DHT22;4492;48.736;9.092;2022-10-30T15:52:03;18.70;99.90
8914;DHT22;4492;48.736;9.092;2022-10-30T15:54:30;18.60;99.90
8914;DHT22;4492;48.736;9.092;2022-10-30T15:56:57;18.40;99.90
8914;DHT22;4492;48.736;9.092;2022-10-30T15:59:28;18.20;99.90
8914;DHT22;4492;48.736;9.092;2022-10-30T16:01:57;18.00;99.90
8914;DHT22;4492;48.736;9.092;2022-10-30T16:04:25;17.80;99.90
8914;DHT22;4492;48.736;9.092;2022-10-30T16:07:20;17.70;99.90
8914;DHT22;4492;48.736;9.092;2022-10-30T16:09:57;17.50;99.90
8914;DHT22;4492;48.736;9.092;2022-10-30T16:12:29;17.40;99.90
8914;DHT22;4492;48.736;9.092;2022-10-30T16:14:55;17.20;99.90
8914;DHT22;4492;48.736;9.092;2022-10-30T16:17:25;17.10;99.90
8914;DHT22;4492;48.736;9.092;2022-10-30T16:19:53;17.00;99.90
8914;DHT22;4492;48.736;9.092;2022-10-30T16:22:25;16.90;99.90
8914;DHT22;4492;48.736;9.092;2022-10-30T16:24:52;16.70;99.90
8914;DHT22;4492;48.736;9.092;2022-10-30T16:27:20;16.70;99.90
8914;DHT22;4492;48.736;9.092;2022-10-30T16:29:55;16.60;99.90
8914;DHT22;4492;48.736;9.092;2022-10-30T16:32:24;16.50;99.90
8914;DHT22;4492;48.736;9.092;2022-10-30T16:34:55;16.30;99.90
8914;DHT22;4492;48.736;9.092;2022-10-30T16:37:24;16.20;99.90
8914;DHT22;4492;48.736;9.092;2022-10-30T16:39:52;16.10;99.90
8914;DHT22;4492;48.736;9.092;2022-10-30T16:42:24;16.00;99.90
8914;DHT22;4492;48.736;9.092;2022-10-30T16:47:45;15.70;99.90
8914;DHT22;4492;48.736;9.092;2022-10-30T16:50:16;15.60;99.90
8914;DHT22;4492;48.736;9.092;2022-10-30T16:52:42;15.40;99.90
8914;DHT22;4492;48.736;9.092;2022-10-30T16:55:14;15.30;99.90
8914;DHT22;4492;48.736;9.092;2022-10-30T16:57:43;15.20;99.90
8914;DHT22;4492;48.736;9.092;2022-10-30T17:00:23;15.10;99.90
8914;DHT22;4492;48.736;9.092;2022-10-30T17:02:50;15.00;99.90
8914;DHT22;4492;48.736;9.092;2022-10-30T17:05:26;15.00;99.90
8914;DHT22;4492;48.736;9.092;2022-10-30T17:07:54;14.80;99.90
8914;DHT22;4492;48.736;9.092;2022-10-30T17:10:34;14.80;99.90
8914;DHT22;4492;48.736;9.092;2022-10-30T17:13:38;14.70;99.90
8914;DHT22;4492;48.736;9.092;2022-10-30T17:16:32;14.50;99.90
8914;DHT22;4492;48.736;9.092;2022-10-30T17:19:01;14.40;99.90
8914;DHT22;4492;48.736;9.092;2022-10-30T17:21:45;14.30;99.90
8914;DHT22;4492;48.736;9.092;2022-10-30T17:24:32;14.20;99.90
8914;DHT22;4492;48.736;9.092;2022-10-30T17:27:02;14.10;99.90
8914;DHT22;4492;48.736;9.092;2022-10-30T17:34:37;14.00;99.90
8914;DHT22;4492;48.736;9.092;2022-10-30T17:37:03;13.90;99.90
8914;DHT22;4492;48.736;9.092;2022-10-30T17:39:28;14.00;99.90
8914;DHT22;4492;48.736;9.092;2022-10-30T17:41:56;13.80;99.90
8914;DHT22;4492;48.736;9.092;2022-10-30T17:44:23;13.80;99.90
8914;DHT22;4492;48.736;9.092;2022-10-30T17:46:49;13.70;99.90
8914;DHT22;4492;48.736;9.092;2022-10-30T17:49:36;13.70;99.90
8914;DHT22;4492;48.736;9.092;2022-10-30T17:52:02;13.60;99.90
8914;DHT22;4492;48.736;9.092;2022-10-30T17:54:29;13.60;99.90
8914;DHT22;4492;48.736;9.092;2022-10-30T17:56:55;13.60;99.90
8914;DHT22;4492;48.736;9.092;2022-10-30T17:59:21;13.50;99.90
8914;DHT22;4492;48.736;9.092;2022-10-30T18:01:47;13.50;99.90
8914;DHT22;4492;48.736;9.092;2022-10-30T18:04:15;13.60;99.90
8914;DHT22;4492;48.736;9.092;2022-10-30T18:06:42;13.50;99.90
8914;DHT22;4492;48.736;9.092;2022-10-30T18:09:07;13.50;99.90
8914;DHT22;4492;48.736;9.092;2022-10-30T18:11:33;13.40;99.90
8914;DHT22;4492;48.736;9.092;2022-10-30T18:13:59;13.40;99.90
8914;DHT22;4492;48.736;9.092;2022-10-30T18:16:24;13.40;99.90
8914;DHT22;4492;48.736;9.092;2022-10-30T18:18:50;13.30;99.90
8914;DHT22;4492;48.736;9.092;2022-10-30T18:21:19;13.40;99.90
8914;DHT22;4492;48.736;9.092;2022-10-30T18:23:45;13.40;99.90